Time;durP1;ratioP1;P1;durP2;ratioP2;P2;SDS_P1;SDS_P2;PMS_P1;PMS_P2;Temp;Humidity;BMP_temperature;BMP_pressure;BME280_temperature;BME280_humidity;BME280_pressure;Samples;Min_cycle;Max_cycle;Signal;HPM_P1;HPM_P2
2021/10/11 20:22:19;;;;;;;3.13;0.73;;;20.70;49.40;;;;;;5099091;27;20125;-52
2021/10/11 20:24:46;;;;;;;7.32;1.55;;;20.60;49.20;;;;;;5093646;28;20042;-49
2021/10/11 20:27:13;;;;;;;4.45;0.60;;;20.70;48.60;;;;;;5104025;28;20044;-48
2021/10/11 20:29:41;;;;;;;4.70;0.40;;;20.70;48.90;;;;;;5092806;28;20516;-47
2021/10/11 20:32:08;;;;;;;6.00;0.60;;;20.80;48.90;;;;;;5093553;28;20483;-52
2021/10/11 20:34:35;;;;;;;3.78;0.93;;;20.90;48.90;;;;;;5102216;28;20046;-60
2021/10/11 20:37:03;;;;;;;7.30;0.77;;;21.10;50.40;;;;;;5100259;28;20044;-63
2021/10/11 20:39:31;;;;;;;7.60;0.38;;;21.20;51.40;;;;;;5099378;28;20036;-60
2021/10/11 20:41:59;;;;;;;7.07;0.88;;;21.30;51.90;;;;;;5092852;28;20556;-53
2021/10/11 20:44:26;;;;;;;4.63;0.95;;;21.40;52.50;;;;;;5120912;27;20048;-56
2021/10/11 20:46:53;;;;;;;5.18;0.93;;;21.60;52.80;;;;;;5091510;28;20185;-56
2021/10/11 20:49:24;;;;;;;5.28;0.65;;;21.70;52.90;;;;;;5097682;28;20040;-66
2021/10/11 20:51:51;;;;;;;6.72;1.05;;;21.80;53.10;;;;;;5100457;28;20047;-66
2021/10/11 20:54:18;;;;;;;4.72;0.75;;;21.90;53.10;;;;;;5094915;27;20050;-60
2021/10/11 20:56:46;;;;;;;9.95;0.70;;;22.00;53.20;;;;;;5091079;28;20044;-54
2021/10/11 20:59:14;;;;;;;6.22;0.65;;;22.20;53.20;;;;;;5099850;28;20137;-56
2021/10/11 21:01:43;;;;;;;9.65;0.70;;;22.20;52.70;;;;;;5097428;28;20048;-64
2021/10/11 21:04:10;;;;;;;8.20;0.77;;;22.30;52.50;;;;;;5105536;28;20040;-59
2021/10/11 21:06:37;;;;;;;3.08;0.50;;;22.40;52.40;;;;;;5101728;28;20413;-60
2021/10/11 21:09:05;;;;;;;3.08;0.50;;;22.50;52.20;;;;;;5100304;28;20139;-61
2021/10/11 21:11:32;;;;;;;3.17;0.63;;;22.60;51.80;;;;;;5099943;28;20043;-66
2021/10/11 21:14:00;;;;;;;7.60;1.33;;;22.70;51.40;;;;;;5097259;28;20065;-66
2021/10/11 21:16:27;;;;;;;7.40;0.68;;;22.80;51.10;;;;;;5101073;28;20081;-77
2021/10/11 21:18:55;;;;;;;2.95;0.77;;;22.90;50.60;;;;;;5099183;28;20124;-71
2021/10/11 21:21:22;;;;;;;2.35;0.60;;;23.00;50.30;;;;;;5097546;28;20052;-77
2021/10/11 21:23:49;;;;;;;3.25;0.85;;;23.10;50.10;;;;;;5098336;28;20061;-76
2021/10/11 21:26:16;;;;;;;1.52;0.30;;;23.20;49.80;;;;;;5100887;28;20040;-73
2021/10/11 21:28:43;;;;;;;5.68;1.10;;;23.30;49.60;;;;;;5099492;28;20065;-75
2021/10/11 21:31:11;;;;;;;2.47;0.40;;;23.30;49.30;;;;;;5110853;28;20126;-75
2021/10/11 21:33:38;;;;;;;3.00;0.90;;;23.40;49.10;;;;;;5096614;28;20460;-64
2021/10/11 21:36:06;;;;;;;3.55;0.68;;;23.50;48.90;;;;;;5092694;28;20040;-69
2021/10/11 21:38:33;;;;;;;3.35;0.88;;;23.60;48.70;;;;;;5103630;28;20093;-68
2021/10/11 21:40:59;;;;;;;1.92;0.50;;;23.70;48.40;;;;;;5102753;28;20052;-52
2021/10/11 21:43:26;;;;;;;3.40;0.60;;;23.70;48.20;;;;;;5102053;28;20040;-65
2021/10/11 21:45:54;;;;;;;0.95;0.50;;;23.90;48.00;;;;;;5092948;28;20097;-67
2021/10/11 21:48:22;;;;;;;1.52;0.77;;;23.90;47.80;;;;;;5093807;28;20040;-67
2021/10/11 21:50:49;;;;;;;5.00;0.57;;;24.00;47.60;;;;;;5098285;28;20055;-78
2021/10/11 21:53:16;;;;;;;1.70;0.57;;;24.00;47.40;;;;;;5096494;28;20151;-78
2021/10/11 21:55:44;;;;;;;2.25;0.60;;;24.10;47.70;;;;;;5101047;28;20055;-72
2021/10/11 21:58:11;;;;;;;1.88;0.73;;;24.10;46.90;;;;;;5097997;28;20086;-66
2021/10/11 22:00:49;;;;;;;1.67;0.40;;;24.20;46.80;;;;;;5087770;28;20044;-61
2021/10/11 22:03:16;;;;;;;2.78;1.35;;;24.30;46.60;;;;;;5080001;28;20136;-70
2021/10/11 22:05:45;;;;;;;1.83;0.35;;;24.30;46.30;;;;;;5082718;28;20044;-60
2021/10/11 22:08:12;;;;;;;1.50;0.77;;;24.30;46.20;;;;;;5083450;28;20036;-61
2021/10/11 22:10:40;;;;;;;3.35;0.47;;;24.40;46.00;;;;;;5078771;28;20052;-61
2021/10/11 22:13:08;;;;;;;1.70;0.75;;;24.40;45.60;;;;;;5078447;28;20095;-59
2021/10/11 22:15:35;;;;;;;4.68;0.35;;;24.50;45.40;;;;;;5083920;28;20040;-61
2021/10/11 22:18:03;;;;;;;1.77;0.88;;;24.50;45.30;;;;;;5084247;28;20561;-64
2021/10/11 22:20:30;;;;;;;2.63;0.75;;;24.60;45.10;;;;;;5084120;28;20394;-59
2021/10/11 22:22:59;;;;;;;3.20;0.40;;;24.60;45.00;;;;;;5083013;28;20566;-60
2021/10/11 22:25:26;;;;;;;20.13;3.42;;;24.60;44.90;;;;;;5082271;28;20028;-69
2021/10/11 22:27:53;;;;;;;3.60;0.60;;;24.60;45.00;;;;;;5083888;28;20036;-59
2021/10/11 22:30:22;;;;;;;1.58;0.93;;;24.70;44.80;;;;;;5081174;28;20496;-60
2021/10/11 22:32:50;;;;;;;1.85;0.20;;;24.70;44.60;;;;;;5079298;28;20048;-54
2021/10/11 22:35:18;;;;;;;2.22;0.45;;;24.70;44.50;;;;;;5077750;28;20059;-55
2021/10/11 22:37:46;;;;;;;2.40;0.88;;;24.80;44.50;;;;;;5088913;28;20133;-58
2021/10/11 22:40:15;;;;;;;1.70;0.30;;;24.80;44.40;;;;;;5084192;28;20043;-53
2021/10/11 22:42:42;;;;;;;2.97;0.63;;;24.80;44.40;;;;;;5083641;28;20043;-61
2021/10/11 22:45:10;;;;;;;6.03;0.40;;;24.80;44.50;;;;;;5088799;28;20028;-61
2021/10/11 22:47:38;;;;;;;4.47;0.30;;;24.70;44.30;;;;;;5089325;28;20101;-61
2021/10/11 22:50:06;;;;;;;2.67;0.55;;;24.70;44.30;;;;;;5090708;28;20455;-62
2021/10/11 22:52:42;;;;;;;3.05;0.40;;;24.70;44.20;;;;;;5089659;28;20054;-62
2021/10/11 22:55:10;;;;;;;4.15;0.35;;;24.70;44.30;;;;;;5084813;28;20042;-61
2021/10/11 22:57:38;;;;;;;1.75;0.38;;;24.70;44.30;;;;;;5084733;28;20035;-60
2021/10/11 23:00:08;;;;;;;1.42;0.50;;;24.60;44.30;;;;;;5083671;28;20049;-61
2021/10/11 23:02:35;;;;;;;2.00;0.63;;;24.60;44.40;;;;;;5080651;28;20051;-60
2021/10/11 23:05:02;;;;;;;1.48;0.38;;;24.60;44.50;;;;;;5080064;28;20440;-61
2021/10/11 23:07:29;;;;;;;1.48;0.60;;;24.60;44.60;;;;;;5086182;28;20047;-59
2021/10/11 23:09:56;;;;;;;3.05;0.98;;;24.60;44.60;;;;;;5081223;28;20431;-60
2021/10/11 23:12:24;;;;;;;2.83;0.40;;;24.50;44.50;;;;;;5084617;28;20039;-60
2021/10/11 23:14:54;;;;;;;3.72;0.32;;;24.50;44.50;;;;;;5081814;28;20404;-60
2021/10/11 23:17:21;;;;;;;6.00;0.30;;;24.50;44.50;;;;;;5083225;28;20048;-60
2021/10/11 23:19:48;;;;;;;3.15;0.25;;;24.50;44.60;;;;;;5084810;28;20048;-60
2021/10/11 23:22:17;;;;;;;2.17;0.40;;;24.40;44.60;;;;;;5079480;28;20040;-61
2021/10/11 23:24:44;;;;;;;3.72;0.98;;;24.40;44.50;;;;;;5075579;28;20078;-61
2021/10/11 23:27:11;;;;;;;2.22;0.32;;;24.40;44.70;;;;;;5083263;28;20039;-62
2021/10/11 23:29:38;;;;;;;1.90;0.40;;;24.40;44.70;;;;;;5077616;28;20047;-62
2021/10/11 23:32:08;;;;;;;5.05;0.50;;;24.40;44.60;;;;;;5082047;28;20047;-61
2021/10/11 23:34:36;;;;;;;4.63;0.32;;;24.40;44.70;;;;;;5085723;28;20044;-61
2021/10/11 23:37:03;;;;;;;1.27;0.35;;;24.40;44.70;;;;;;5081491;28;20052;-61
2021/10/11 23:39:31;;;;;;;1.63;0.20;;;24.40;44.70;;;;;;5084046;28;20043;-61
2021/10/11 23:41:58;;;;;;;2.75;0.30;;;24.30;44.70;;;;;;5081616;28;20043;-61
2021/10/11 23:44:25;;;;;;;2.58;0.20;;;24.30;44.70;;;;;;5084063;28;20077;-60
2021/10/11 23:46:52;;;;;;;1.85;0.20;;;24.30;44.70;;;;;;5080043;28;20048;-61
2021/10/11 23:49:21;;;;;;;2.83;0.30;;;24.30;44.70;;;;;;5080923;28;20056;-60
2021/10/11 23:51:48;;;;;;;1.38;0.68;;;24.30;44.70;;;;;;5084426;28;20135;-60
2021/10/11 23:54:16;;;;;;;1.77;0.77;;;24.30;44.80;;;;;;5080668;28;20101;-61
2021/10/11 23:56:45;;;;;;;0.85;0.20;;;24.30;44.80;;;;;;5084823;28;20064;-60
2021/10/11 23:59:12;;;;;;;1.90;0.40;;;24.20;44.80;;;;;;5085532;28;20028;-60
